createdAt,value
2023-09-05T00:01:34.611Z,13.60
2023-09-05T00:04:01.749Z,13.60
2023-09-05T00:06:28.930Z,13.60
2023-09-05T00:08:55.970Z,13.50
2023-09-05T00:11:23.017Z,13.50
2023-09-05T00:13:49.981Z,13.50
2023-09-05T00:16:17.038Z,13.50
2023-09-05T00:18:45.194Z,13.50
2023-09-05T00:21:12.216Z,13.40
2023-09-05T00:23:42.075Z,13.50
2023-09-05T00:26:09.079Z,13.50
2023-09-05T00:28:36.203Z,13.40
2023-09-05T00:31:03.386Z,13.40
2023-09-05T00:33:31.331Z,13.40
2023-09-05T00:35:58.583Z,13.40
2023-09-05T00:38:25.613Z,13.40
2023-09-05T00:40:53.171Z,13.40
2023-09-05T00:43:21.638Z,13.40
2023-09-05T00:45:53.344Z,13.30
2023-09-05T00:48:25.144Z,13.40
2023-09-05T00:50:52.996Z,13.40
2023-09-05T00:53:20.004Z,13.30
2023-09-05T00:55:47.104Z,13.30
2023-09-05T00:58:14.887Z,13.30
2023-09-05T01:00:42.042Z,13.40
2023-09-05T01:03:09.205Z,13.40
2023-09-05T01:05:38.927Z,13.50
2023-09-05T01:08:16.252Z,13.50
2023-09-05T01:10:48.158Z,13.40
2023-09-05T01:13:27.576Z,13.30
2023-09-05T01:15:55.788Z,13.20
2023-09-05T01:18:22.980Z,13.10
2023-09-05T01:21:11.945Z,13.10
2023-09-05T01:23:46.062Z,13.10
2023-09-05T01:26:13.221Z,13.00
2023-09-05T01:28:42.879Z,13.00
2023-09-05T01:31:11.895Z,12.90
2023-09-05T01:33:42.381Z,12.90
2023-09-05T01:36:09.419Z,12.90
2023-09-05T01:38:36.892Z,13.00
2023-09-05T01:41:04.032Z,13.00
2023-09-05T01:43:31.006Z,13.00
2023-09-05T01:45:57.953Z,13.00
2023-09-05T01:48:24.885Z,13.00
2023-09-05T01:50:52.493Z,13.00
2023-09-05T01:53:19.507Z,13.00
2023-09-05T01:55:46.634Z,13.00
2023-09-05T01:58:13.687Z,12.80
2023-09-05T02:00:40.884Z,12.80
2023-09-05T02:03:08.067Z,12.70
2023-09-05T02:05:35.464Z,12.80
2023-09-05T02:08:02.936Z,12.80
2023-09-05T02:10:31.718Z,12.90
2023-09-05T02:12:58.737Z,12.80
2023-09-05T02:15:25.731Z,12.80
2023-09-05T02:17:52.909Z,12.80
2023-09-05T02:20:20.075Z,12.80
2023-09-05T02:22:47.137Z,12.70
2023-09-05T02:25:14.117Z,12.70
2023-09-05T02:27:41.360Z,12.60
2023-09-05T02:30:08.936Z,12.60
2023-09-05T02:32:36.055Z,12.50
2023-09-05T02:35:03.144Z,12.50
2023-09-05T02:37:30.193Z,12.50
2023-09-05T02:39:57.246Z,12.50
2023-09-05T02:42:24.325Z,12.50
2023-09-05T02:44:52.734Z,12.50
2023-09-05T02:47:19.799Z,12.60
2023-09-05T02:49:46.859Z,12.60
2023-09-05T02:52:13.923Z,12.70
2023-09-05T02:54:40.915Z,12.70
2023-09-05T02:57:07.940Z,12.70
2023-09-05T02:59:34.894Z,12.70
2023-09-05T03:02:01.861Z,12.60
2023-09-05T03:04:33.378Z,12.50
2023-09-05T03:07:03.807Z,12.50
2023-09-05T03:09:30.969Z,12.50
2023-09-05T03:11:58.310Z,12.50
2023-09-05T03:14:26.269Z,12.50
2023-09-05T03:16:53.238Z,12.50
2023-09-05T03:19:23.271Z,12.40
2023-09-05T03:21:51.662Z,12.40
2023-09-05T03:24:19.514Z,12.40
2023-09-05T03:26:47.638Z,12.40
2023-09-05T03:29:15.845Z,12.40
2023-09-05T03:31:43.074Z,12.30
2023-09-05T03:34:11.193Z,12.40
2023-09-05T03:36:38.247Z,12.40
2023-09-05T03:39:05.229Z,12.30
2023-09-05T03:41:32.562Z,12.30
2023-09-05T03:43:59.513Z,12.40
2023-09-05T03:46:28.603Z,12.50
2023-09-05T03:48:56.899Z,12.50
2023-09-05T03:51:24.386Z,12.50
2023-09-05T03:53:51.502Z,12.50
2023-09-05T03:56:18.600Z,12.50
2023-09-05T03:58:45.779Z,12.50
2023-09-05T04:01:16.432Z,12.50
2023-09-05T04:03:44.379Z,12.50
2023-09-05T04:06:11.413Z,12.50
2023-09-05T04:08:38.671Z,12.40
2023-09-05T04:11:05.801Z,12.50
2023-09-05T04:13:33.016Z,12.50
2023-09-05T04:16:07.064Z,12.40
2023-09-05T04:18:35.574Z,12.30
2023-09-05T04:21:02.920Z,12.20
2023-09-05T04:23:30.229Z,12.20
2023-09-05T04:26:01.449Z,12.20
2023-09-05T04:28:30.232Z,12.20
2023-09-05T04:31:01.839Z,12.20
2023-09-05T04:33:33.309Z,12.10
2023-09-05T04:36:00.539Z,12.10
2023-09-05T04:38:28.581Z,12.20
2023-09-05T04:40:55.640Z,12.30
2023-09-05T04:43:22.775Z,12.30
2023-09-05T04:45:55.310Z,12.40
2023-09-05T04:48:22.618Z,12.50
2023-09-05T04:50:49.655Z,12.50
2023-09-05T04:53:16.610Z,12.60
2023-09-05T04:55:45.843Z,12.60
2023-09-05T04:58:15.765Z,12.60
2023-09-05T05:00:42.996Z,12.70
2023-09-05T05:03:10.468Z,12.70
2023-09-05T05:05:37.669Z,12.70
2023-09-05T05:08:04.986Z,12.60
2023-09-05T05:10:35.037Z,12.60
2023-09-05T05:13:02.797Z,12.70
2023-09-05T05:15:29.790Z,12.70
2023-09-05T05:17:56.873Z,12.70
2023-09-05T05:20:23.979Z,12.80
2023-09-05T05:22:51.744Z,12.80
2023-09-05T05:25:18.724Z,13.00
2023-09-05T05:27:45.713Z,13.00
2023-09-05T05:30:13.575Z,13.00
2023-09-05T05:32:40.629Z,13.10
2023-09-05T05:35:08.378Z,13.10
2023-09-05T05:37:35.390Z,13.20
2023-09-05T05:40:02.448Z,13.10
2023-09-05T05:42:29.481Z,13.10
2023-09-05T05:44:56.557Z,13.10
2023-09-05T05:47:23.950Z,13.20
2023-09-05T05:49:51.128Z,13.30
2023-09-05T05:52:18.446Z,13.50
2023-09-05T05:54:46.782Z,13.50
2023-09-05T05:57:14.012Z,13.80
2023-09-05T05:59:41.463Z,13.90
2023-09-05T06:02:08.714Z,14.10
2023-09-05T06:04:35.798Z,14.20
2023-09-05T06:07:02.902Z,14.40
2023-09-05T06:09:30.198Z,14.50
2023-09-05T06:11:57.227Z,14.70
2023-09-05T06:14:24.136Z,14.80
2023-09-05T06:16:51.240Z,14.90
2023-09-05T06:19:19.142Z,15.00
2023-09-05T06:21:48.147Z,15.10
2023-09-05T06:24:15.656Z,15.20
2023-09-05T06:26:46.333Z,15.30
2023-09-05T06:29:13.549Z,15.50
2023-09-05T06:31:40.557Z,15.60
2023-09-05T06:34:08.420Z,15.70
2023-09-05T06:36:35.358Z,15.80
2023-09-05T06:39:04.347Z,16.00
2023-09-05T06:41:31.383Z,16.10
2023-09-05T06:43:58.343Z,16.20
2023-09-05T06:46:25.282Z,16.30
2023-09-05T06:48:52.332Z,16.50
2023-09-05T06:51:19.262Z,16.50
2023-09-05T06:53:46.460Z,16.60
2023-09-05T06:56:13.520Z,16.80
2023-09-05T06:58:40.559Z,17.00
2023-09-05T07:01:07.651Z,17.10
2023-09-05T07:03:34.752Z,17.20
2023-09-05T07:06:07.454Z,17.40
2023-09-05T07:08:35.055Z,17.40
2023-09-05T07:11:02.192Z,17.60
2023-09-05T07:13:29.330Z,17.70
2023-09-05T07:15:59.025Z,17.80
2023-09-05T07:18:26.455Z,17.90
2023-09-05T07:20:53.874Z,18.00
2023-09-05T07:23:21.008Z,18.10
2023-09-05T07:25:47.997Z,18.20
2023-09-05T07:28:15.088Z,18.40
2023-09-05T07:30:42.472Z,18.50
2023-09-05T07:33:10.236Z,18.60
2023-09-05T07:35:37.868Z,18.80
2023-09-05T07:38:05.091Z,18.90
2023-09-05T07:40:32.151Z,19.00
2023-09-05T07:43:01.676Z,19.10
2023-09-05T07:45:28.862Z,19.30
2023-09-05T07:47:56.010Z,19.40
2023-09-05T07:50:23.566Z,19.50
2023-09-05T07:52:50.577Z,19.60
2023-09-05T07:55:18.125Z,19.70
2023-09-05T07:57:45.381Z,19.70
2023-09-05T08:00:16.979Z,19.80
2023-09-05T08:02:44.580Z,19.80
2023-09-05T08:05:12.011Z,19.90
2023-09-05T08:07:39.646Z,20.00
2023-09-05T08:10:08.072Z,20.00
2023-09-05T08:12:35.309Z,20.10
2023-09-05T08:15:02.497Z,20.20
2023-09-05T08:17:31.775Z,20.30
2023-09-05T08:19:59.723Z,20.40
2023-09-05T08:22:26.874Z,20.50
2023-09-05T08:24:54.397Z,20.60
2023-09-05T08:27:29.989Z,20.60
2023-09-05T08:29:58.609Z,20.70
2023-09-05T08:32:25.955Z,20.80
2023-09-05T08:34:53.140Z,20.90
2023-09-05T08:37:21.026Z,20.90
2023-09-05T08:39:48.136Z,20.90
2023-09-05T08:42:15.255Z,21.00
2023-09-05T08:44:42.905Z,21.00
2023-09-05T08:47:10.333Z,21.00
2023-09-05T08:49:38.688Z,20.90
2023-09-05T08:52:07.222Z,21.00
2023-09-05T08:54:34.372Z,21.00
2023-09-05T08:57:03.902Z,21.00
2023-09-05T08:59:32.937Z,20.90
2023-09-05T09:02:01.263Z,20.90
2023-09-05T09:04:28.884Z,21.00
2023-09-05T09:06:57.167Z,20.90
2023-09-05T09:09:39.613Z,20.90
2023-09-05T09:12:07.875Z,21.10
2023-09-05T09:14:34.956Z,21.10
2023-09-05T09:17:03.316Z,21.10
2023-09-05T09:19:30.745Z,21.10
2023-09-05T09:22:03.657Z,21.20
2023-09-05T09:24:38.251Z,21.30
2023-09-05T09:27:06.868Z,21.50
2023-09-05T09:29:34.822Z,21.50
2023-09-05T09:32:06.782Z,21.60
2023-09-05T09:34:39.042Z,21.50
2023-09-05T09:37:06.110Z,21.60
2023-09-05T09:39:33.816Z,21.70
2023-09-05T09:42:02.232Z,21.70
2023-09-05T09:44:31.641Z,21.80
2023-09-05T09:47:01.169Z,22.00
2023-09-05T09:49:29.979Z,21.90
2023-09-05T09:51:59.024Z,21.90
2023-09-05T09:54:38.364Z,21.90
2023-09-05T09:57:06.762Z,21.80
2023-09-05T09:59:39.138Z,21.90
2023-09-05T10:02:14.728Z,21.90
2023-09-05T10:04:43.993Z,21.90
2023-09-05T10:07:18.636Z,21.90
2023-09-05T10:09:48.682Z,21.90
2023-09-05T10:12:22.117Z,21.90
2023-09-05T10:14:50.640Z,22.00
2023-09-05T10:17:20.421Z,22.00
2023-09-05T10:19:50.442Z,22.10
2023-09-05T10:22:18.390Z,22.20
2023-09-05T10:24:46.740Z,22.40
2023-09-05T10:27:13.851Z,22.40
2023-09-05T10:29:42.881Z,22.40
2023-09-05T10:32:15.474Z,22.50
2023-09-05T10:34:48.670Z,22.60
2023-09-05T10:37:18.627Z,22.60
2023-09-05T10:39:55.463Z,22.70
2023-09-05T10:42:30.266Z,22.80
2023-09-05T10:44:58.172Z,22.80
2023-09-05T10:47:29.100Z,22.80
2023-09-05T10:50:06.404Z,22.80
2023-09-05T10:52:33.886Z,22.90
2023-09-05T10:55:28.497Z,23.00
2023-09-05T10:57:55.641Z,23.00
2023-09-05T11:00:23.807Z,23.00
2023-09-05T11:02:51.708Z,23.00
2023-09-05T11:05:20.163Z,23.00
2023-09-05T11:07:47.868Z,23.00
2023-09-05T11:10:36.017Z,23.00
2023-09-05T11:13:11.506Z,23.10
2023-09-05T11:15:44.557Z,23.30
2023-09-05T11:18:14.041Z,23.40
2023-09-05T11:20:49.393Z,23.40
2023-09-05T11:23:30.711Z,23.50
2023-09-05T11:26:05.154Z,23.30
2023-09-05T11:28:33.382Z,23.30
2023-09-05T11:31:04.518Z,23.40
2023-09-05T11:33:33.601Z,23.50
2023-09-05T11:36:06.189Z,23.60
2023-09-05T11:38:49.425Z,23.70
2023-09-05T11:41:19.945Z,23.80
2023-09-05T11:44:05.802Z,23.80
2023-09-05T11:46:36.111Z,24.00
2023-09-05T11:49:04.741Z,23.90
2023-09-05T11:51:31.957Z,23.80
2023-09-05T11:53:59.889Z,23.90
2023-09-05T11:56:27.381Z,23.90
2023-09-05T11:58:54.384Z,23.90
2023-09-05T12:01:29.215Z,23.90
2023-09-05T12:04:07.458Z,24.00
2023-09-05T12:06:37.995Z,24.10
2023-09-05T12:09:23.688Z,24.10
2023-09-05T12:11:51.619Z,24.10
2023-09-05T12:14:18.585Z,24.10
2023-09-05T12:16:48.848Z,24.10
2023-09-05T12:19:17.986Z,24.20
2023-09-05T12:21:46.974Z,24.20
2023-09-05T12:24:24.618Z,24.20
2023-09-05T12:26:54.254Z,24.20
2023-09-05T12:29:23.140Z,24.30
2023-09-05T12:31:51.392Z,24.30
2023-09-05T12:34:19.595Z,24.40
2023-09-05T12:36:46.733Z,24.50
2023-09-05T12:39:13.755Z,24.50
2023-09-05T12:41:40.820Z,24.50
2023-09-05T12:44:08.028Z,24.30
2023-09-05T12:46:36.080Z,24.40
2023-09-05T12:49:03.764Z,24.50
2023-09-05T12:51:32.079Z,24.50
2023-09-05T12:54:02.051Z,24.60
2023-09-05T12:56:29.890Z,24.60
2023-09-05T12:58:56.928Z,24.60
2023-09-05T13:01:24.341Z,24.60
2023-09-05T13:03:51.617Z,24.60
2023-09-05T13:06:20.826Z,24.50
2023-09-05T13:08:48.220Z,24.60
2023-09-05T13:11:17.029Z,24.70
2023-09-05T13:13:45.086Z,24.80
2023-09-05T13:16:12.198Z,24.80
2023-09-05T13:18:39.211Z,24.80
2023-09-05T13:21:06.280Z,24.80
2023-09-05T13:23:33.363Z,24.80
2023-09-05T13:26:03.611Z,24.90
2023-09-05T13:28:31.630Z,25.00
2023-09-05T13:30:59.153Z,25.00
2023-09-05T13:33:26.296Z,24.90
2023-09-05T13:35:54.040Z,24.90
2023-09-05T13:38:21.089Z,24.90
2023-09-05T13:40:48.131Z,24.80
2023-09-05T13:43:15.223Z,24.80
2023-09-05T13:45:42.255Z,24.80
2023-09-05T13:48:09.724Z,24.90
2023-09-05T13:50:36.775Z,25.00
2023-09-05T13:53:05.256Z,25.00
2023-09-05T13:55:32.401Z,25.00
2023-09-05T13:57:59.478Z,25.00
2023-09-05T14:00:26.803Z,24.90
2023-09-05T14:02:54.534Z,24.80
2023-09-05T14:05:21.759Z,24.80
2023-09-05T14:07:48.894Z,24.90
2023-09-05T14:10:17.450Z,24.80
2023-09-05T14:12:44.937Z,24.90
2023-09-05T14:15:12.013Z,24.80
2023-09-05T14:17:39.103Z,24.80
2023-09-05T14:20:07.556Z,24.70
2023-09-05T14:22:34.623Z,24.60
2023-09-05T14:25:01.658Z,24.70
2023-09-05T14:27:28.828Z,24.60
2023-09-05T14:29:55.963Z,24.60
2023-09-05T14:32:23.412Z,24.60
2023-09-05T14:34:55.936Z,24.60
2023-09-05T14:37:24.835Z,24.60
2023-09-05T14:39:54.385Z,24.60
2023-09-05T14:42:22.301Z,24.50
2023-09-05T14:44:49.497Z,24.40
2023-09-05T14:47:17.776Z,24.20
2023-09-05T14:49:46.953Z,24.10
2023-09-05T14:52:14.139Z,24.10
2023-09-05T14:54:42.375Z,24.00
2023-09-05T14:57:09.429Z,24.00
2023-09-05T14:59:36.475Z,24.00
2023-09-05T15:02:03.739Z,23.90
2023-09-05T15:04:30.989Z,23.80
2023-09-05T15:06:58.159Z,23.70
2023-09-05T15:09:27.443Z,23.60
2023-09-05T15:11:54.692Z,23.60
2023-09-05T15:14:21.717Z,23.50
2023-09-05T15:16:48.862Z,23.40
2023-09-05T15:19:15.906Z,23.40
2023-09-05T15:21:44.346Z,23.30
2023-09-05T15:24:12.974Z,23.30
2023-09-05T15:26:40.086Z,23.30
2023-09-05T15:29:09.324Z,23.30
2023-09-05T15:31:36.379Z,23.30
2023-09-05T15:34:03.424Z,23.10
2023-09-05T15:36:30.581Z,23.10
2023-09-05T15:38:57.566Z,23.10
2023-09-05T15:41:24.752Z,23.10
2023-09-05T15:43:51.798Z,23.10
2023-09-05T15:46:19.408Z,23.10
2023-09-05T15:48:46.474Z,23.10
2023-09-05T15:51:14.527Z,23.00
2023-09-05T15:53:44.277Z,23.00
2023-09-05T15:56:11.728Z,23.00
2023-09-05T15:58:40.240Z,22.90
2023-09-05T16:01:10.766Z,22.80
2023-09-05T16:03:37.886Z,22.80
2023-09-05T16:06:05.159Z,22.70
2023-09-05T16:08:33.825Z,22.70
2023-09-05T16:11:18.878Z,22.70
2023-09-05T16:13:46.521Z,22.70
2023-09-05T16:16:13.841Z,22.60
2023-09-05T16:18:41.118Z,22.60
2023-09-05T16:21:08.881Z,22.60
2023-09-05T16:23:36.306Z,22.60
2023-09-05T16:26:03.643Z,22.50
2023-09-05T16:28:30.684Z,22.50
2023-09-05T16:30:58.516Z,22.40
2023-09-05T16:33:29.175Z,22.30
2023-09-05T16:36:04.067Z,22.30
2023-09-05T16:38:33.354Z,22.20
2023-09-05T16:41:00.326Z,22.10
2023-09-05T16:43:27.433Z,22.10
2023-09-05T16:45:55.333Z,22.00
2023-09-05T16:48:22.609Z,22.00
2023-09-05T16:50:49.724Z,22.00
2023-09-05T16:53:16.827Z,22.00
2023-09-05T16:55:43.784Z,21.90
2023-09-05T16:58:10.860Z,21.80
2023-09-05T17:00:39.460Z,21.80
2023-09-05T17:03:08.032Z,21.70
2023-09-05T17:05:38.141Z,21.60
2023-09-05T17:08:09.466Z,21.60
2023-09-05T17:10:37.245Z,21.60
2023-09-05T17:13:04.488Z,21.50
2023-09-05T17:15:31.550Z,21.50
2023-09-05T17:17:58.745Z,21.50
2023-09-05T17:20:25.714Z,21.50
2023-09-05T17:22:52.818Z,21.40
2023-09-05T17:25:19.952Z,21.30
2023-09-05T17:27:49.286Z,21.30
2023-09-05T17:30:16.344Z,21.20
2023-09-05T17:32:43.484Z,21.10
2023-09-05T17:35:10.897Z,21.00
2023-09-05T17:37:41.189Z,20.90
2023-09-05T17:40:14.490Z,20.80
2023-09-05T17:42:41.562Z,20.70
2023-09-05T17:45:09.287Z,20.60
2023-09-05T17:47:37.197Z,20.50
2023-09-05T17:50:04.707Z,20.50
2023-09-05T17:52:31.765Z,20.50
2023-09-05T17:54:58.773Z,20.40
2023-09-05T17:57:26.038Z,20.20
2023-09-05T17:59:54.112Z,20.00
2023-09-05T18:02:21.118Z,19.90
2023-09-05T18:04:49.601Z,19.70
2023-09-05T18:07:16.717Z,19.50
2023-09-05T18:09:43.689Z,19.50
2023-09-05T18:12:10.710Z,19.50
2023-09-05T18:14:37.881Z,19.50
2023-09-05T18:17:05.510Z,19.50
2023-09-05T18:19:32.865Z,19.50
2023-09-05T18:22:00.277Z,19.50
2023-09-05T18:24:27.403Z,19.40
2023-09-05T18:26:54.569Z,19.40
2023-09-05T18:29:23.248Z,19.30
2023-09-05T18:31:50.380Z,19.10
2023-09-05T18:34:37.476Z,19.00
2023-09-05T18:37:07.737Z,18.90
2023-09-05T18:39:35.596Z,18.90
2023-09-05T18:51:47.706Z,18.70
2023-09-05T18:54:15.379Z,18.60
2023-09-05T18:56:42.510Z,18.70
2023-09-05T18:59:09.698Z,18.60
2023-09-05T19:01:36.867Z,18.60
2023-09-05T19:04:07.283Z,18.60
2023-09-05T19:06:34.898Z,18.60
2023-09-05T19:09:04.703Z,18.60
2023-09-05T19:11:39.346Z,18.50
2023-09-05T19:14:07.230Z,18.50
2023-09-05T19:16:34.417Z,18.50
2023-09-05T19:19:01.776Z,18.40
2023-09-05T19:21:29.211Z,18.30
2023-09-05T19:23:56.475Z,18.20
2023-09-05T19:26:23.708Z,18.10
2023-09-05T19:28:51.227Z,18.10
2023-09-05T19:31:18.606Z,18.00
2023-09-05T19:33:46.335Z,18.00
2023-09-05T19:36:13.597Z,17.80
2023-09-05T19:38:40.866Z,17.80
2023-09-05T19:41:09.110Z,17.70
2023-09-05T19:43:38.644Z,17.70
2023-09-05T19:46:05.637Z,17.70
2023-09-05T19:48:33.024Z,17.60
2023-09-05T19:51:00.229Z,17.50
2023-09-05T19:53:27.198Z,17.50
2023-09-05T19:55:54.230Z,17.40
2023-09-05T19:58:21.364Z,17.30
2023-09-05T20:00:50.323Z,17.30
2023-09-05T20:03:18.910Z,17.30
2023-09-05T20:05:46.030Z,17.30
2023-09-05T20:08:13.071Z,17.30
2023-09-05T20:10:40.160Z,17.30
2023-09-05T20:13:07.249Z,17.30
2023-09-05T20:15:35.994Z,17.20
2023-09-05T20:18:03.350Z,17.20
2023-09-05T20:20:30.430Z,17.10
2023-09-05T20:22:57.377Z,17.10
2023-09-05T20:25:24.407Z,17.10
2023-09-05T20:27:51.455Z,17.10
2023-09-05T20:30:19.011Z,17.10
2023-09-05T20:32:46.173Z,17.10
2023-09-05T20:35:14.770Z,17.10
2023-09-05T20:37:41.744Z,17.00
2023-09-05T20:40:09.192Z,17.00
2023-09-05T20:42:38.764Z,17.00
2023-09-05T20:45:06.573Z,17.00
2023-09-05T20:47:33.596Z,17.00
2023-09-05T20:50:04.728Z,17.00
2023-09-05T20:52:32.175Z,17.00
2023-09-05T20:54:59.217Z,17.00
2023-09-05T20:57:26.305Z,17.00
2023-09-05T20:59:53.430Z,17.00
2023-09-05T21:02:20.587Z,16.90
2023-09-05T21:04:47.722Z,16.80
2023-09-05T21:07:14.913Z,16.80
2023-09-05T21:09:41.946Z,16.80
2023-09-05T21:12:08.949Z,16.80
2023-09-05T21:14:36.020Z,16.80
2023-09-05T21:17:02.977Z,16.90
2023-09-05T21:19:29.984Z,16.90
2023-09-05T21:21:57.083Z,16.90
2023-09-05T21:24:25.738Z,16.80
2023-09-05T21:26:53.207Z,16.70
2023-09-05T21:29:20.235Z,16.60
2023-09-05T21:31:47.240Z,16.60
2023-09-05T21:34:14.218Z,16.60
2023-09-05T21:36:41.358Z,16.50
2023-09-05T21:39:08.390Z,16.50
2023-09-05T21:41:35.379Z,16.50
2023-09-05T21:44:02.915Z,16.50
2023-09-05T21:46:29.951Z,16.50
2023-09-05T21:48:57.148Z,16.50
2023-09-05T21:51:24.289Z,16.40
2023-09-05T21:53:51.348Z,16.40
2023-09-05T21:56:20.635Z,16.30
2023-09-05T21:58:48.079Z,16.30
2023-09-05T22:01:15.043Z,16.40
2023-09-05T22:03:42.183Z,16.50
2023-09-05T22:06:09.316Z,16.50
2023-09-05T22:08:36.361Z,16.50
2023-09-05T22:11:03.633Z,16.50
2023-09-05T22:13:30.734Z,16.50
2023-09-05T22:15:57.817Z,16.50
2023-09-05T22:18:24.871Z,16.50
2023-09-05T22:20:58.692Z,16.40
2023-09-05T22:23:29.446Z,16.40
2023-09-05T22:25:56.435Z,16.30
2023-09-05T22:28:23.811Z,16.30
2023-09-05T22:30:50.919Z,16.30
2023-09-05T22:33:18.804Z,16.30
2023-09-05T22:35:45.929Z,16.20
2023-09-05T22:38:12.933Z,16.20
2023-09-05T22:40:40.446Z,16.10
2023-09-05T22:43:07.357Z,16.10
2023-09-05T22:45:34.558Z,16.00
2023-09-05T22:48:01.661Z,16.00
2023-09-05T22:50:28.747Z,16.00
2023-09-05T22:52:55.865Z,16.00
2023-09-05T22:55:23.552Z,16.00
2023-09-05T22:57:50.926Z,15.90
2023-09-05T23:00:20.253Z,15.90
2023-09-05T23:02:47.362Z,15.80
2023-09-05T23:05:14.743Z,15.80
2023-09-05T23:07:42.207Z,15.90
2023-09-05T23:10:09.682Z,15.80
2023-09-05T23:12:36.717Z,15.90
2023-09-05T23:15:07.314Z,15.80
2023-09-05T23:17:34.520Z,15.80
2023-09-05T23:20:01.813Z,15.70
2023-09-05T23:22:28.860Z,15.70
2023-09-05T23:24:55.987Z,15.70
2023-09-05T23:27:23.505Z,15.70
2023-09-05T23:29:50.613Z,15.70
2023-09-05T23:32:20.302Z,15.70
2023-09-05T23:34:47.190Z,15.70
2023-09-05T23:37:14.304Z,15.80
2023-09-05T23:39:44.122Z,15.80
2023-09-05T23:42:11.096Z,15.80
2023-09-05T23:44:38.011Z,15.70
2023-09-05T23:47:07.313Z,15.70
2023-09-05T23:49:37.383Z,15.70
2023-09-05T23:52:05.221Z,15.80
2023-09-05T23:54:32.229Z,15.70
2023-09-05T23:56:59.205Z,15.80
2023-09-05T23:59:26.916Z,15.80
